createdAt,value
2022-09-14T00:00:02.114Z,651.7
2022-09-14T00:02:10.617Z,651.7
2022-09-14T00:03:13.587Z,651.3
2022-09-14T00:04:16.196Z,651.2
2022-09-14T00:05:18.663Z,650.7
2022-09-14T00:06:20.600Z,651.1
2022-09-14T00:07:22.772Z,651.7
2022-09-14T00:08:24.991Z,652.2
2022-09-14T00:09:27.479Z,652.5
2022-09-14T00:10:29.691Z,653
2022-09-14T00:11:31.619Z,652.8
2022-09-14T00:12:34.095Z,653
2022-09-14T00:13:36.570Z,653.1
2022-09-14T00:14:39.055Z,652.9
2022-09-14T00:15:41.514Z,652.8
2022-09-14T00:16:44.396Z,652.7
2022-09-14T00:17:46.920Z,652.7
2022-09-14T00:18:49.463Z,652.7
2022-09-14T00:19:51.997Z,652
2022-09-14T00:20:54.477Z,651.9
2022-09-14T00:21:56.961Z,651.6
2022-09-14T00:22:59.163Z,652.2
2022-09-14T00:24:01.369Z,651.8
2022-09-14T00:25:03.955Z,651.9
2022-09-14T00:26:06.438Z,651.8
2022-09-14T00:27:08.640Z,652.5
2022-09-14T00:28:11.114Z,652.3
2022-09-14T00:29:13.608Z,652.5
2022-09-14T00:30:15.840Z,652.7
2022-09-14T00:31:19.099Z,652
2022-09-14T00:32:21.351Z,652
2022-09-14T00:33:23.675Z,651.9
2022-09-14T00:34:26.188Z,652.4
2022-09-14T00:35:28.401Z,652.6
2022-09-14T00:36:30.604Z,652.7
2022-09-14T00:37:33.072Z,652.9
2022-09-14T00:38:35.545Z,652.8
2022-09-14T00:39:38.098Z,652.7
2022-09-14T00:40:40.668Z,653.1
2022-09-14T00:41:42.867Z,652.7
2022-09-14T00:42:45.336Z,653.1
2022-09-14T00:43:47.955Z,653.4
2022-09-14T00:44:50.520Z,653.4
2022-09-14T00:45:53.490Z,653.8
2022-09-14T00:46:56.030Z,654.6
2022-09-14T00:47:58.504Z,654.8
2022-09-14T00:49:00.720Z,655.2
2022-09-14T00:50:02.622Z,655.6
2022-09-14T00:51:04.812Z,655.5
2022-09-14T00:52:06.712Z,655.7
2022-09-14T00:53:09.186Z,656.3
2022-09-14T00:54:11.658Z,656.4
2022-09-14T00:55:13.866Z,656.8
2022-09-14T00:56:16.352Z,657.1
2022-09-14T00:57:18.603Z,657
2022-09-14T00:58:21.073Z,657.3
2022-09-14T00:59:23.544Z,657.1
2022-09-14T01:00:25.736Z,657.8
2022-09-14T01:01:28.793Z,657.3
2022-09-14T01:02:31.659Z,657.4
2022-09-14T01:03:33.883Z,657.1
2022-09-14T01:04:36.370Z,657.1
2022-09-14T01:05:38.566Z,657.1
2022-09-14T01:06:41.053Z,657.3
2022-09-14T01:07:43.525Z,657.4
2022-09-14T01:08:45.818Z,657.6
2022-09-14T01:09:48.157Z,658.1
2022-09-14T01:10:50.662Z,658.4
2022-09-14T01:11:53.902Z,658.8
2022-09-14T01:12:56.373Z,659.3
2022-09-14T01:13:58.839Z,659.5
2022-09-14T01:15:01.310Z,659.6
2022-09-14T01:16:03.856Z,659.8
2022-09-14T01:17:06.493Z,659.7
2022-09-14T01:18:08.961Z,659.9
2022-09-14T01:19:11.431Z,660.5
2022-09-14T01:20:13.918Z,660.2
2022-09-14T01:21:16.117Z,660.5
2022-09-14T01:22:18.694Z,660.2
2022-09-14T01:23:21.163Z,659.6
2022-09-14T01:24:23.632Z,660.4
2022-09-14T01:25:25.823Z,660.5
2022-09-14T01:26:28.322Z,660.7
2022-09-14T01:27:30.815Z,660.8
2022-09-14T01:28:33.291Z,661
2022-09-14T01:29:35.495Z,661.3
2022-09-14T01:30:37.974Z,660.9
2022-09-14T01:31:40.769Z,660.8
2022-09-14T01:32:43.301Z,660.7
2022-09-14T01:33:45.856Z,660.6
2022-09-14T01:34:48.342Z,661.2
2022-09-14T01:35:50.922Z,661.1
2022-09-14T01:36:53.395Z,661.3
2022-09-14T01:37:55.891Z,661.3
2022-09-14T01:38:58.363Z,661.5
2022-09-14T01:40:01.213Z,661.9
2022-09-14T01:41:03.728Z,662
2022-09-14T01:42:06.212Z,662
2022-09-14T01:43:08.715Z,661.7
2022-09-14T01:44:11.189Z,662.1
2022-09-14T01:45:13.382Z,662.3
2022-09-14T01:46:16.211Z,662.6
2022-09-14T01:47:18.200Z,662.7
2022-09-14T01:48:20.416Z,662.7
2022-09-14T01:49:22.609Z,663.3
2022-09-14T01:50:25.082Z,663
2022-09-14T01:51:27.290Z,662.9
2022-09-14T01:52:28.913Z,663.1
2022-09-14T01:53:31.500Z,662.8
2022-09-14T01:54:33.708Z,662.9
2022-09-14T01:55:35.888Z,662.7
2022-09-14T01:56:38.375Z,662.5
2022-09-14T01:57:40.877Z,662.6
2022-09-14T01:58:42.878Z,662.5
2022-09-14T01:59:45.080Z,662.4
2022-09-14T02:00:48.037Z,662
2022-09-14T02:01:54.118Z,662.3
2022-09-14T02:02:57.217Z,662.2
2022-09-14T02:04:00.258Z,662.4
2022-09-14T02:05:02.793Z,662.5
2022-09-14T02:06:05.000Z,662.5
2022-09-14T02:07:07.234Z,662.5
2022-09-14T02:08:09.440Z,663
2022-09-14T02:09:12.000Z,662.7
2022-09-14T02:10:14.462Z,663
2022-09-14T02:11:16.949Z,662.6
2022-09-14T02:12:19.137Z,662.4
2022-09-14T02:13:21.630Z,662.1
2022-09-14T02:14:23.848Z,661.8
2022-09-14T02:15:26.334Z,661.9
2022-09-14T02:16:29.102Z,661.8
2022-09-14T02:17:31.604Z,662.3
2022-09-14T02:18:34.078Z,662
2022-09-14T02:19:36.625Z,661.8
2022-09-14T02:20:39.092Z,662
2022-09-14T02:21:41.282Z,662
2022-09-14T02:22:43.473Z,661.9
2022-09-14T02:23:45.951Z,661.9
2022-09-14T02:24:48.201Z,661.9
2022-09-14T02:25:50.673Z,662
2022-09-14T02:26:52.865Z,661.7
2022-09-14T02:27:55.103Z,662
2022-09-14T02:28:57.633Z,661.9
2022-09-14T02:30:00.217Z,661.8
2022-09-14T02:31:03.114Z,661.7
2022-09-14T02:32:04.781Z,661.8
2022-09-14T02:33:07.248Z,661.6
2022-09-14T02:34:09.170Z,662.1
2022-09-14T02:35:11.659Z,662.4
2022-09-14T02:36:14.130Z,662.2
2022-09-14T02:37:16.600Z,662.8
2022-09-14T02:38:19.097Z,662.9
2022-09-14T02:39:21.563Z,662.9
2022-09-14T02:40:24.578Z,663.4
2022-09-14T02:41:26.797Z,663.7
2022-09-14T02:42:29.222Z,663.9
2022-09-14T02:43:31.694Z,664.2
2022-09-14T02:44:33.912Z,664.3
2022-09-14T02:45:36.399Z,664.6
2022-09-14T02:46:39.276Z,664.8
2022-09-14T02:47:41.764Z,665.7
2022-09-14T02:48:44.233Z,666.5
2022-09-14T02:49:46.701Z,666.7
2022-09-14T02:50:49.191Z,667
2022-09-14T02:51:51.402Z,667
2022-09-14T02:52:53.592Z,666.9
2022-09-14T02:53:55.811Z,666.8
2022-09-14T02:54:58.290Z,667
2022-09-14T02:56:00.500Z,666.9
2022-09-14T02:57:02.700Z,667.4
2022-09-14T02:58:04.874Z,667.3
2022-09-14T02:59:07.346Z,667
2022-09-14T03:00:09.663Z,666.8
2022-09-14T03:01:12.785Z,666.9
2022-09-14T03:02:16.058Z,667.1
2022-09-14T03:03:18.278Z,667.3
2022-09-14T03:04:20.758Z,667.1
2022-09-14T03:05:23.227Z,667.7
2022-09-14T03:06:25.731Z,667.7
2022-09-14T03:07:28.196Z,668
2022-09-14T03:08:30.669Z,668.2
2022-09-14T03:09:33.153Z,668.4
2022-09-14T03:10:35.076Z,668.4
2022-09-14T03:11:37.296Z,668.2
2022-09-14T03:12:39.476Z,668.3
2022-09-14T03:13:41.691Z,668.2
2022-09-14T03:14:43.890Z,667.9
2022-09-14T03:15:46.386Z,668.2
2022-09-14T03:16:48.944Z,667.9
2022-09-14T03:17:51.171Z,667.7
2022-09-14T03:18:53.637Z,667.9
2022-09-14T03:19:56.099Z,667.5
2022-09-14T03:20:58.589Z,667.9
2022-09-14T03:22:00.871Z,667.6
2022-09-14T03:23:03.075Z,667.8
2022-09-14T03:24:05.549Z,667.7
2022-09-14T03:25:08.044Z,667.8
2022-09-14T03:26:10.505Z,668
2022-09-14T03:27:12.808Z,668.2
2022-09-14T03:28:15.146Z,667.9
2022-09-14T03:29:17.628Z,667.9
2022-09-14T03:30:19.833Z,667.9
2022-09-14T03:31:22.871Z,668.1
2022-09-14T03:32:25.387Z,668
2022-09-14T03:33:27.587Z,668.2
2022-09-14T03:34:29.787Z,668.2
2022-09-14T03:35:32.260Z,668.4
2022-09-14T03:36:34.439Z,668.4
2022-09-14T03:37:36.953Z,667.9
2022-09-14T03:38:39.143Z,668.2
2022-09-14T03:39:41.610Z,668.6
2022-09-14T03:40:44.108Z,668.5
2022-09-14T03:41:46.290Z,668.4
2022-09-14T03:42:48.579Z,668.4
2022-09-14T03:43:51.356Z,668.6
2022-09-14T03:44:53.606Z,668.6
2022-09-14T03:45:55.798Z,669.3
2022-09-14T03:46:58.609Z,669.8
2022-09-14T03:48:00.937Z,669.4
2022-09-14T03:49:03.143Z,669.3
2022-09-14T03:50:05.614Z,668.9
2022-09-14T03:51:07.517Z,669
2022-09-14T03:52:09.693Z,669.7
2022-09-14T03:53:12.287Z,669.7
2022-09-14T03:54:14.749Z,669.6
2022-09-14T03:55:16.962Z,669.7
2022-09-14T03:56:19.747Z,669.8
2022-09-14T03:57:21.955Z,669.5
2022-09-14T03:58:24.464Z,669.2
2022-09-14T03:59:26.948Z,669
2022-09-14T04:00:29.418Z,669.4
2022-09-14T04:01:32.291Z,669.4
2022-09-14T04:02:35.234Z,669.4
2022-09-14T04:03:37.788Z,669
2022-09-14T04:04:40.249Z,668.5
2022-09-14T04:05:42.440Z,668.7
2022-09-14T04:06:44.640Z,669.2
2022-09-14T04:07:46.569Z,669
2022-09-14T04:08:49.822Z,668.7
2022-09-14T04:09:52.055Z,668.3
2022-09-14T04:10:54.530Z,667.8
2022-09-14T04:11:56.745Z,667.1
2022-09-14T04:12:59.217Z,667.1
2022-09-14T04:14:01.719Z,667.4
2022-09-14T04:15:04.187Z,667.4
2022-09-14T04:16:07.068Z,666.9
2022-09-14T04:17:09.587Z,666.6
2022-09-14T04:18:11.803Z,666.8
2022-09-14T04:19:14.148Z,666.7
2022-09-14T04:20:16.622Z,666.4
2022-09-14T04:21:19.093Z,666.5
2022-09-14T04:22:21.301Z,666.8
2022-09-14T04:23:23.765Z,666.1
2022-09-14T04:25:30.966Z,666.7
2022-09-14T04:26:33.432Z,666.5
2022-09-14T04:27:35.911Z,666.9
2022-09-14T04:28:38.425Z,666.7
2022-09-14T04:29:40.639Z,666.7
2022-09-14T04:30:43.102Z,667.2
2022-09-14T04:31:45.788Z,667
2022-09-14T04:32:47.995Z,667.2
2022-09-14T04:33:50.680Z,667.6
2022-09-14T04:34:52.693Z,667.4
2022-09-14T04:35:54.873Z,667.3
2022-09-14T04:36:57.050Z,667.5
2022-09-14T04:37:59.539Z,667.3
2022-09-14T04:39:01.773Z,667.7
2022-09-14T04:40:04.472Z,667.4
2022-09-14T04:41:06.807Z,667.7
2022-09-14T04:42:09.289Z,667.8
2022-09-14T04:43:11.515Z,668.7
2022-09-14T04:44:14.005Z,668.6
2022-09-14T04:45:16.643Z,668.8
2022-09-14T04:46:19.243Z,668.8
2022-09-14T04:47:21.726Z,668.7
2022-09-14T04:48:24.208Z,668.5
2022-09-14T04:49:26.139Z,668.8
2022-09-14T04:50:28.351Z,668.5
2022-09-14T04:51:30.553Z,669
2022-09-14T04:52:33.043Z,668.8
2022-09-14T04:53:35.512Z,668.6
2022-09-14T04:54:37.716Z,668.6
2022-09-14T04:55:39.932Z,668.5
2022-09-14T04:56:42.133Z,668.7
2022-09-14T04:57:44.328Z,668.3
2022-09-14T04:59:51.919Z,668.8
2022-09-14T05:00:54.130Z,668.9
2022-09-14T05:01:57.059Z,668.7
2022-09-14T05:03:00.205Z,669
2022-09-14T05:04:01.856Z,669
2022-09-14T05:05:03.802Z,668.9
2022-09-14T05:06:06.300Z,669.4
2022-09-14T05:07:08.493Z,669.1
2022-09-14T05:08:10.971Z,669.1
2022-09-14T05:09:13.167Z,668.8
2022-09-14T05:10:15.647Z,669.1
2022-09-14T05:11:17.848Z,669.1
2022-09-14T05:12:20.076Z,669.4
2022-09-14T05:13:22.542Z,669
2022-09-14T05:14:24.759Z,669.2
2022-09-14T05:15:27.270Z,669.4
2022-09-14T05:16:30.376Z,670
2022-09-14T05:17:32.856Z,670.2
2022-09-14T05:18:35.329Z,670.1
2022-09-14T05:19:37.234Z,670
2022-09-14T05:20:41.160Z,669.8
2022-09-14T05:21:42.913Z,669.9
2022-09-14T05:22:44.847Z,669.9
2022-09-14T05:23:47.061Z,669.7
2022-09-14T05:24:49.245Z,669.5
2022-09-14T05:25:51.444Z,669.8
2022-09-14T05:28:00.977Z,669.9
2022-09-14T05:29:03.439Z,669.9
2022-09-14T05:30:05.632Z,669.5
2022-09-14T05:31:08.289Z,669.8
2022-09-14T05:32:10.818Z,670.1
2022-09-14T05:33:13.294Z,670
2022-09-14T05:34:15.223Z,669.2
2022-09-14T05:35:17.425Z,669.9
2022-09-14T05:36:19.669Z,669.9
2022-09-14T05:37:21.895Z,670.1
2022-09-14T05:38:24.116Z,670.1
2022-09-14T05:39:26.584Z,671
2022-09-14T05:40:29.156Z,670.5
2022-09-14T05:41:31.388Z,670.8
2022-09-14T05:42:33.567Z,671.3
2022-09-14T05:43:35.783Z,671.3
2022-09-14T05:44:38.259Z,671.5
2022-09-14T05:45:40.733Z,671.9
2022-09-14T05:46:43.136Z,671.4
2022-09-14T05:47:45.653Z,671.4
2022-09-14T05:48:48.125Z,670.8
2022-09-14T05:49:50.608Z,670.8
2022-09-14T05:50:53.076Z,671.3
2022-09-14T05:51:55.669Z,671
2022-09-14T05:52:57.997Z,671.2
2022-09-14T05:54:00.483Z,670.8
2022-09-14T05:55:03.020Z,671.2
2022-09-14T05:56:05.506Z,670.7
2022-09-14T05:57:07.707Z,670.6
2022-09-14T05:58:10.176Z,671
2022-09-14T05:59:12.674Z,670.9
2022-09-14T06:00:15.136Z,671.1
2022-09-14T06:01:17.337Z,670.9
2022-09-14T06:02:20.153Z,670.6
2022-09-14T06:03:22.676Z,670.6
2022-09-14T06:04:25.166Z,670.1
2022-09-14T06:05:27.558Z,669.5
2022-09-14T06:06:29.770Z,670
2022-09-14T06:07:32.265Z,669.4
2022-09-14T06:08:34.752Z,669.7
2022-09-14T06:09:37.235Z,669.7
2022-09-14T06:10:39.414Z,669.8
2022-09-14T06:11:41.371Z,669.2
2022-09-14T06:12:43.844Z,669.6
2022-09-14T06:13:45.778Z,669.2
2022-09-14T06:14:48.080Z,669
2022-09-14T06:15:50.273Z,669.4
2022-09-14T06:16:52.473Z,668.7
2022-09-14T06:17:54.970Z,668.4
2022-09-14T06:18:57.269Z,668.4
2022-09-14T06:21:04.461Z,668.5
2022-09-14T06:22:06.925Z,668.5
2022-09-14T06:23:09.446Z,668.6
2022-09-14T06:24:11.926Z,668.9
2022-09-14T06:25:14.407Z,668.7
2022-09-14T06:26:16.887Z,668.7
2022-09-14T06:27:18.798Z,668.6
2022-09-14T06:28:21.273Z,668.3
2022-09-14T06:29:23.738Z,668.3
2022-09-14T06:30:26.157Z,668.8
2022-09-14T06:31:28.360Z,668.1
2022-09-14T06:32:30.589Z,668.1
2022-09-14T06:33:32.313Z,668.4
2022-09-14T06:34:34.544Z,668.2
2022-09-14T06:35:36.758Z,668.3
2022-09-14T06:36:39.238Z,667.6
2022-09-14T06:37:41.450Z,667.8
2022-09-14T06:38:44.200Z,667.9
2022-09-14T06:39:47.131Z,667
2022-09-14T06:40:49.369Z,667.3
2022-09-14T06:41:51.858Z,667.1
2022-09-14T06:42:53.757Z,667.4
2022-09-14T06:43:56.257Z,666.2
2022-09-14T06:44:58.468Z,666.8
2022-09-14T06:46:00.724Z,667.1
2022-09-14T06:47:03.212Z,667.4
2022-09-14T06:48:05.410Z,667.6
2022-09-14T06:49:07.917Z,668.1
2022-09-14T06:50:10.118Z,668.8
2022-09-14T06:51:12.019Z,668.4
2022-09-14T06:52:14.511Z,669.1
2022-09-14T06:53:16.994Z,669.9
2022-09-14T06:54:19.340Z,670.2
2022-09-14T06:55:21.370Z,670.7
2022-09-14T06:56:23.573Z,670.7
2022-09-14T06:57:25.226Z,670.8
2022-09-14T06:58:27.702Z,671.2
2022-09-14T06:59:29.894Z,672
2022-09-14T07:00:31.536Z,671.7
2022-09-14T07:01:33.754Z,671.2
2022-09-14T07:02:36.598Z,671.5
2022-09-14T07:03:38.799Z,671.8
2022-09-14T07:04:41.302Z,670.9
2022-09-14T07:05:43.894Z,671.3
2022-09-14T07:06:46.095Z,671.2
2022-09-14T07:07:48.001Z,670.7
2022-09-14T07:08:50.183Z,671.3
2022-09-14T07:09:52.402Z,671.3
2022-09-14T07:10:54.911Z,671.2
2022-09-14T07:11:57.374Z,671.2
2022-09-14T07:12:59.281Z,670.8
2022-09-14T07:14:01.495Z,670.2
2022-09-14T07:15:03.699Z,670.2
2022-09-14T07:16:05.640Z,670.3
2022-09-14T07:17:07.882Z,670.3
2022-09-14T07:18:10.085Z,669.8
2022-09-14T07:19:12.552Z,670
2022-09-14T07:20:14.753Z,670.2
2022-09-14T07:21:17.040Z,670
2022-09-14T07:22:19.236Z,670
2022-09-14T07:23:21.142Z,670.1
2022-09-14T07:24:23.354Z,669.9
2022-09-14T07:25:25.862Z,670.1
2022-09-14T07:26:28.360Z,670.2
2022-09-14T07:27:30.867Z,670
2022-09-14T07:28:34.990Z,669.6
2022-09-14T07:29:36.907Z,669.8
2022-09-14T07:30:39.750Z,669.5
2022-09-14T07:31:41.673Z,669.4
2022-09-14T07:32:44.181Z,669.4
2022-09-14T07:33:46.223Z,669.4
2022-09-14T07:34:48.433Z,669.3
2022-09-14T07:35:50.659Z,668.8
2022-09-14T07:36:52.971Z,668.9
2022-09-14T07:37:55.198Z,668.4
2022-09-14T07:38:57.399Z,668.5
2022-09-14T07:40:00.287Z,668.5
2022-09-14T07:41:02.826Z,668.2
2022-09-14T07:42:05.317Z,668.8
2022-09-14T07:43:07.792Z,668.5
2022-09-14T07:44:09.692Z,668.8
2022-09-14T07:45:12.160Z,668.6
2022-09-14T07:46:15.338Z,668.8
2022-09-14T07:47:17.617Z,668.8
2022-09-14T07:48:19.869Z,668.7
2022-09-14T07:49:21.802Z,669
2022-09-14T07:50:24.409Z,668.5
2022-09-14T07:51:26.942Z,669
2022-09-14T07:52:29.524Z,668.4
2022-09-14T07:53:31.734Z,668.7
2022-09-14T07:54:33.939Z,668.4
2022-09-14T07:55:36.427Z,668.7
2022-09-14T07:56:38.992Z,668.2
2022-09-14T07:58:46.556Z,667.9
2022-09-14T07:59:49.024Z,668
2022-09-14T08:00:51.495Z,668.1
2022-09-14T08:01:54.810Z,667.8
2022-09-14T08:02:57.474Z,667.3
2022-09-14T08:05:04.983Z,666.9
2022-09-14T08:06:07.180Z,666.5
2022-09-14T08:07:09.399Z,666.6
2022-09-14T08:08:11.626Z,666.5
2022-09-14T08:09:14.100Z,666.6
2022-09-14T08:10:16.308Z,666.4
2022-09-14T08:11:18.497Z,665.4
2022-09-14T08:12:20.693Z,665.8
2022-09-14T08:13:23.190Z,664.9
2022-09-14T08:14:25.502Z,665.5
2022-09-14T08:16:33.106Z,665.5
2022-09-14T08:17:35.317Z,665.4
2022-09-14T08:18:37.521Z,666.1
2022-09-14T08:19:39.736Z,666.2
2022-09-14T08:20:42.054Z,666
2022-09-14T08:22:49.623Z,666
2022-09-14T08:23:51.927Z,665.4
2022-09-14T08:24:54.134Z,666.1
2022-09-14T08:25:56.324Z,666.4
2022-09-14T08:26:58.513Z,666.4
2022-09-14T08:28:01.003Z,666.5
2022-09-14T08:29:03.485Z,666.7
2022-09-14T08:30:05.798Z,665.7
2022-09-14T08:31:07.741Z,666.2
2022-09-14T08:32:10.516Z,666.1
2022-09-14T08:33:12.500Z,666.9
2022-09-14T08:34:14.699Z,665.9
2022-09-14T08:35:17.186Z,665.3
2022-09-14T08:36:19.696Z,665.8
2022-09-14T08:37:22.170Z,666.4
2022-09-14T08:38:24.787Z,666.3
2022-09-14T08:39:27.089Z,665.9
2022-09-14T08:40:29.845Z,665.7
2022-09-14T08:41:32.384Z,665.4
2022-09-14T08:42:34.710Z,666.1
2022-09-14T08:43:36.934Z,665.3
2022-09-14T08:44:39.407Z,665.1
2022-09-14T08:45:42.215Z,664.9
2022-09-14T08:46:44.740Z,665.3
2022-09-14T08:47:47.222Z,664.6
2022-09-14T08:48:49.772Z,664.7
2022-09-14T08:49:51.778Z,665.2
2022-09-14T08:50:53.979Z,665.1
2022-09-14T08:51:56.501Z,665.5
2022-09-14T08:52:59.022Z,665.1
2022-09-14T08:54:01.562Z,664.9
2022-09-14T08:55:03.796Z,664.7
2022-09-14T08:56:06.282Z,664.2
2022-09-14T08:57:08.767Z,664.1
2022-09-14T08:58:11.242Z,664.1
2022-09-14T08:59:13.449Z,663.9
2022-09-14T09:00:15.921Z,663.9
2022-09-14T09:01:18.574Z,664.2
2022-09-14T09:02:21.068Z,664.2
2022-09-14T09:03:23.780Z,663.8
2022-09-14T09:04:25.894Z,664.2
2022-09-14T09:05:28.371Z,663.6
2022-09-14T09:06:30.569Z,663
2022-09-14T09:07:33.075Z,663
2022-09-14T09:08:34.994Z,664.2
2022-09-14T09:09:37.221Z,663.3
2022-09-14T09:10:39.803Z,663
2022-09-14T09:11:41.704Z,663
2022-09-14T09:12:43.917Z,663.1
2022-09-14T09:13:46.390Z,663.9
2022-09-14T09:14:48.974Z,663
2022-09-14T09:15:51.633Z,662.9
2022-09-14T09:16:53.860Z,662.6
2022-09-14T09:17:56.069Z,662.8
2022-09-14T09:18:58.542Z,663
2022-09-14T09:20:01.017Z,662.2
2022-09-14T09:21:03.513Z,663
2022-09-14T09:22:05.757Z,662.4
2022-09-14T09:23:08.264Z,663.1
2022-09-14T09:24:10.733Z,663
2022-09-14T09:25:13.222Z,662.9
2022-09-14T09:26:15.747Z,663.4
2022-09-14T09:27:18.228Z,662.7
2022-09-14T09:28:20.699Z,662.8
2022-09-14T09:29:23.168Z,662.1
2022-09-14T09:30:25.662Z,662.7
2022-09-14T09:31:27.655Z,662.7
2022-09-14T09:32:30.187Z,662.3
2022-09-14T09:33:32.658Z,661.9
2022-09-14T09:34:34.872Z,661.6
2022-09-14T09:35:37.353Z,661.8
2022-09-14T09:36:39.847Z,662.1
2022-09-14T09:37:42.042Z,662.3
2022-09-14T09:38:44.544Z,661.7
2022-09-14T09:39:47.077Z,661.9
2022-09-14T09:40:49.308Z,662.6
2022-09-14T09:41:51.842Z,661.8
2022-09-14T09:42:54.320Z,662.2
2022-09-14T09:43:56.248Z,662.2
2022-09-14T09:46:03.513Z,661
2022-09-14T09:47:06.393Z,660.8
2022-09-14T09:48:08.475Z,661.2
2022-09-14T09:49:10.987Z,661.1
2022-09-14T09:50:12.349Z,660.9
2022-09-14T09:51:14.552Z,660.8
2022-09-14T09:52:16.483Z,661.2
2022-09-14T09:53:18.681Z,661.1
2022-09-14T09:54:20.917Z,661.3
2022-09-14T09:55:22.859Z,661.9
2022-09-14T09:56:25.462Z,661.9
2022-09-14T09:57:27.789Z,661.9
2022-09-14T09:58:30.288Z,662.1
2022-09-14T09:59:32.766Z,662.4
2022-09-14T10:00:35.017Z,661.8
2022-09-14T10:01:37.934Z,660.8
2022-09-14T10:02:41.110Z,662.6
2022-09-14T10:03:43.195Z,662.6
2022-09-14T10:04:45.723Z,663.2
2022-09-14T10:05:47.922Z,663.1
2022-09-14T10:06:50.407Z,663.8
2022-09-14T10:07:52.344Z,663.9
2022-09-14T10:08:54.826Z,664.7
2022-09-14T10:09:57.043Z,664.5
2022-09-14T10:10:59.529Z,665.3
2022-09-14T10:12:02.042Z,665.5
2022-09-14T10:13:04.253Z,664.6
2022-09-14T10:14:06.445Z,666
2022-09-14T10:15:08.649Z,665.1
2022-09-14T10:16:11.269Z,665.8
2022-09-14T10:17:13.517Z,666.4
2022-09-14T10:18:16.015Z,665.9
2022-09-14T10:19:18.524Z,667
2022-09-14T10:20:21.011Z,666.6
2022-09-14T10:21:23.481Z,665.9
2022-09-14T10:23:30.946Z,666
2022-09-14T10:24:33.434Z,666
2022-09-14T10:25:36.027Z,665.3
2022-09-14T10:26:38.497Z,665.7
2022-09-14T10:27:40.443Z,665.9
2022-09-14T10:28:42.932Z,666.3
2022-09-14T10:29:45.409Z,666.5
2022-09-14T10:30:48.005Z,665.3
2022-09-14T10:31:50.644Z,665.5
2022-09-14T10:32:53.133Z,665.9
2022-09-14T10:33:55.352Z,666.9
2022-09-14T10:34:57.839Z,667.4
2022-09-14T10:36:00.316Z,667.9
2022-09-14T10:37:02.801Z,668.8
2022-09-14T10:38:05.040Z,668.6
2022-09-14T10:39:07.236Z,668.8
2022-09-14T10:40:09.563Z,669.1
2022-09-14T10:41:11.573Z,669.4
2022-09-14T10:42:13.776Z,669.6
2022-09-14T10:43:16.361Z,669.9
2022-09-14T10:44:18.596Z,669.7
2022-09-14T10:45:21.070Z,669.7
2022-09-14T10:46:23.636Z,669.6
2022-09-14T10:47:25.862Z,670.1
2022-09-14T10:48:29.159Z,670.3
2022-09-14T10:49:31.282Z,670.5
2022-09-14T10:50:33.517Z,670.1
2022-09-14T10:51:35.992Z,670.1
2022-09-14T10:52:38.488Z,670.7
2022-09-14T10:53:40.970Z,670.2
2022-09-14T10:54:43.448Z,670.7
2022-09-14T10:55:45.643Z,670.2
2022-09-14T10:56:48.140Z,669.8
2022-09-14T10:57:50.334Z,669.4
2022-09-14T10:58:52.010Z,669
2022-09-14T10:59:54.300Z,670
2022-09-14T11:00:56.522Z,669.6
2022-09-14T11:01:59.758Z,670.9
2022-09-14T11:03:02.657Z,670.7
2022-09-14T11:04:05.201Z,670.5
2022-09-14T11:05:07.677Z,671
2022-09-14T11:06:10.183Z,670.2
2022-09-14T11:07:12.668Z,670.2
2022-09-14T11:08:15.135Z,670.9
2022-09-14T11:09:17.611Z,670.4
2022-09-14T11:10:19.809Z,670.1
2022-09-14T11:11:22.011Z,671.3
2022-09-14T11:12:24.238Z,670.8
2022-09-14T11:13:26.479Z,671.1
2022-09-14T11:14:28.689Z,671
2022-09-14T11:15:30.782Z,670.8
2022-09-14T11:16:33.076Z,670.8
2022-09-14T11:17:35.293Z,671.3
2022-09-14T11:18:37.772Z,671.7
2022-09-14T11:19:40.018Z,671.9
2022-09-14T11:21:47.602Z,672.6
2022-09-14T11:22:49.792Z,672
2022-09-14T11:23:52.084Z,672.4
2022-09-14T11:24:54.008Z,672.7
2022-09-14T11:25:56.218Z,673.3
2022-09-14T11:26:58.691Z,673.1
2022-09-14T11:28:01.185Z,672.7
2022-09-14T11:29:03.669Z,672.8
2022-09-14T11:30:05.919Z,672.8
2022-09-14T11:31:08.971Z,673.6
2022-09-14T11:33:16.451Z,673.8
2022-09-14T11:34:18.930Z,673.8
2022-09-14T11:35:21.515Z,674.1
2022-09-14T11:36:23.717Z,674.7
2022-09-14T11:37:26.013Z,674
2022-09-14T11:38:28.477Z,674.5
2022-09-14T11:39:30.951Z,674.3
2022-09-14T11:40:34.037Z,674.3
2022-09-14T11:41:36.581Z,674.4
2022-09-14T11:42:39.073Z,673.7
2022-09-14T11:43:41.494Z,674.6
2022-09-14T11:44:43.961Z,675.3
2022-09-14T11:45:46.197Z,675.2
2022-09-14T11:46:49.015Z,675.9
2022-09-14T11:47:51.014Z,675.8
2022-09-14T11:48:54.516Z,675.7
2022-09-14T11:49:57.200Z,676
2022-09-14T11:50:59.431Z,676.6
2022-09-14T11:52:01.631Z,675.9
2022-09-14T11:53:04.123Z,676
2022-09-14T11:54:06.312Z,676.4
2022-09-14T11:55:08.489Z,676.2
2022-09-14T11:56:10.704Z,676.6
2022-09-14T11:57:12.951Z,676.2
2022-09-14T11:58:15.148Z,676.6
2022-09-14T11:59:17.440Z,676.2
2022-09-14T12:00:19.384Z,676.3
2022-09-14T12:01:21.616Z,676.8
2022-09-14T12:02:24.815Z,676.9
2022-09-14T12:03:27.379Z,676.5
2022-09-14T12:04:29.361Z,677.6
2022-09-14T12:05:31.566Z,677.4
2022-09-14T12:06:34.083Z,677.9
2022-09-14T12:07:36.311Z,677.6
2022-09-14T12:08:39.049Z,677.4
2022-09-14T12:09:41.243Z,676.8
2022-09-14T12:11:48.446Z,677.3
2022-09-14T12:12:50.940Z,677.2
2022-09-14T12:13:53.124Z,677.4
2022-09-14T12:14:55.702Z,677.3
2022-09-14T12:15:58.233Z,677.5
2022-09-14T12:17:00.741Z,677.6
2022-09-14T12:18:03.023Z,677.3
2022-09-14T12:19:04.945Z,677.5
2022-09-14T12:20:07.633Z,677.7
2022-09-14T12:21:09.846Z,678
2022-09-14T12:22:12.068Z,677.2
2022-09-14T12:23:14.592Z,676.8
2022-09-14T12:24:17.106Z,677.4
2022-09-14T12:25:19.321Z,677.5
2022-09-14T12:26:21.797Z,677.7
2022-09-14T12:27:24.281Z,677.2
2022-09-14T12:28:26.465Z,677.3
2022-09-14T12:29:28.660Z,677
2022-09-14T12:30:31.270Z,676.8
2022-09-14T12:31:33.945Z,676.9
2022-09-14T12:32:36.463Z,676.7
2022-09-14T12:33:38.698Z,676.5
2022-09-14T12:34:41.219Z,676.3
2022-09-14T12:35:43.430Z,676.4
2022-09-14T12:36:45.351Z,676.6
2022-09-14T12:37:47.925Z,677
2022-09-14T12:38:50.450Z,677
2022-09-14T12:39:53.320Z,677
2022-09-14T12:40:55.535Z,677
2022-09-14T12:41:58.009Z,676.6
2022-09-14T12:43:00.247Z,676.4
2022-09-14T12:44:02.173Z,676
2022-09-14T12:45:04.748Z,676.1
2022-09-14T12:46:07.067Z,676.6
2022-09-14T12:47:09.274Z,676.5
2022-09-14T12:48:11.527Z,676.1
2022-09-14T12:49:13.821Z,676.1
2022-09-14T12:50:16.298Z,676.2
2022-09-14T12:51:18.794Z,675.8
2022-09-14T12:52:21.284Z,675.7
2022-09-14T12:53:23.508Z,675.6
2022-09-14T12:54:25.727Z,675.3
2022-09-14T12:55:27.670Z,675.4
2022-09-14T12:56:29.596Z,675.2
2022-09-14T12:57:31.777Z,676.1
2022-09-14T12:58:33.972Z,676.7
2022-09-14T12:59:36.471Z,677.1
2022-09-14T13:01:44.212Z,677.2
2022-09-14T13:02:47.724Z,676.9
2022-09-14T13:03:50.422Z,676.5
2022-09-14T13:04:52.933Z,676.8
2022-09-14T13:05:54.857Z,677.5
2022-09-14T13:06:57.051Z,677.2
2022-09-14T13:07:59.258Z,677.5
2022-09-14T13:09:01.255Z,677.3
2022-09-14T13:10:03.466Z,677.1
2022-09-14T13:11:05.953Z,677.1
2022-09-14T13:12:08.438Z,677.4
2022-09-14T13:13:10.636Z,677.1
2022-09-14T13:14:12.557Z,677.5
2022-09-14T13:15:14.770Z,677
2022-09-14T13:16:17.623Z,677.4
2022-09-14T13:17:19.954Z,677.6
2022-09-14T13:18:22.068Z,677.9
2022-09-14T13:19:24.609Z,679
2022-09-14T13:20:26.864Z,678.7
2022-09-14T13:21:29.067Z,679.3
2022-09-14T13:22:31.548Z,679.2
2022-09-14T13:23:34.051Z,679.2
2022-09-14T13:24:36.722Z,679.1
2022-09-14T13:25:38.936Z,679
2022-09-14T13:26:41.464Z,678.7
2022-09-14T13:27:43.932Z,678.8
2022-09-14T13:28:46.486Z,679
2022-09-14T13:29:48.975Z,679.3
2022-09-14T13:30:51.492Z,679.1
2022-09-14T13:31:53.741Z,679.8
2022-09-14T13:32:55.954Z,680.3
2022-09-14T13:33:58.190Z,680.2
2022-09-14T13:35:00.406Z,680.3
2022-09-14T13:36:02.626Z,680.8
2022-09-14T13:37:04.829Z,680.4
2022-09-14T13:38:07.318Z,680.5
2022-09-14T13:39:09.228Z,680.2
2022-09-14T13:40:12.117Z,680.1
2022-09-14T13:41:14.414Z,680.3
2022-09-14T13:42:16.963Z,680.4
2022-09-14T13:43:19.165Z,680.6
2022-09-14T13:44:21.636Z,680.8
2022-09-14T13:45:23.571Z,680.5